Time;durP1;ratioP1;P1;durP2;ratioP2;P2;SDS_P1;SDS_P2;PMS_P1;PMS_P2;Temp;Humidity;BMP_temperature;BMP_pressure;BME280_temperature;BME280_humidity;BME280_pressure;Samples;Min_cycle;Max_cycle;Signal;HPM_P1;HPM_P2
2023/08/14 00:01:24;;;;;;;3.73;3.43;;;20.00;99.90;;;;;;5094576;28;21054;-74
2023/08/14 00:03:51;;;;;;;4.17;3.77;;;19.90;99.90;;;;;;5089246;28;20665;-74
2023/08/14 00:06:18;;;;;;;3.90;3.40;;;20.00;99.90;;;;;;5103285;28;20638;-74
2023/08/14 00:08:45;;;;;;;4.27;3.90;;;20.00;99.90;;;;;;5097270;28;20630;-74
2023/08/14 00:11:13;;;;;;;4.27;3.87;;;19.90;99.90;;;;;;5096072;28;20653;-74
2023/08/14 00:13:50;;;;;;;5.20;4.63;;;19.90;99.90;;;;;;5084975;28;20628;-74
2023/08/14 00:16:17;;;;;;;4.00;3.67;;;20.00;99.90;;;;;;5088718;28;20641;-74
2023/08/14 00:18:44;;;;;;;3.83;3.50;;;20.00;99.90;;;;;;5088196;28;21203;-74
2023/08/14 00:21:11;;;;;;;8.17;4.33;;;20.00;99.90;;;;;;5096246;28;20646;-74
2023/08/14 00:23:38;;;;;;;8.13;3.53;;;20.10;99.90;;;;;;5095475;28;20960;-74
2023/08/14 00:26:05;;;;;;;4.90;3.87;;;20.00;99.90;;;;;;5089770;28;21001;-74
2023/08/14 00:28:33;;;;;;;5.07;4.03;;;20.10;99.90;;;;;;5089183;28;20635;-74
2023/08/14 00:31:00;;;;;;;4.23;3.83;;;20.10;99.90;;;;;;5088906;28;20647;-74
2023/08/14 00:33:27;;;;;;;4.30;3.90;;;20.10;99.90;;;;;;5099070;28;21188;-74
2023/08/14 00:35:54;;;;;;;4.40;3.93;;;20.10;99.90;;;;;;5090891;28;20646;-74
2023/08/14 00:38:20;;;;;;;3.57;3.27;;;20.10;99.90;;;;;;5088649;28;21181;-74
2023/08/14 00:40:47;;;;;;;4.40;4.00;;;20.00;99.90;;;;;;5090337;28;21092;-74
2023/08/14 00:43:14;;;;;;;5.33;3.77;;;20.10;99.90;;;;;;5090760;28;20739;-74
2023/08/14 00:45:43;;;;;;;9.87;4.80;;;20.10;99.90;;;;;;5088198;28;21339;-74
2023/08/14 00:48:10;;;;;;;4.07;3.63;;;20.10;99.90;;;;;;5090651;28;20742;-74
2023/08/14 00:50:37;;;;;;;6.07;4.40;;;20.10;99.90;;;;;;5088066;28;20644;-74
2023/08/14 00:53:04;;;;;;;3.57;3.27;;;20.20;99.90;;;;;;5095082;28;20710;-74
2023/08/14 00:55:31;;;;;;;4.07;3.77;;;20.20;99.90;;;;;;5092430;28;21228;-74
2023/08/14 00:57:58;;;;;;;3.90;3.60;;;20.20;99.90;;;;;;5097326;28;20626;-74
2023/08/14 01:00:28;;;;;;;4.10;3.70;;;20.30;99.90;;;;;;5092046;28;21018;-74
2023/08/14 01:02:56;;;;;;;4.40;4.00;;;20.30;99.90;;;;;;5088443;28;20620;-74
2023/08/14 01:05:23;;;;;;;4.77;4.27;;;20.30;99.90;;;;;;5088013;28;20628;-74
2023/08/14 01:07:50;;;;;;;4.27;3.87;;;20.40;99.90;;;;;;5087953;28;20698;-74
2023/08/14 01:10:17;;;;;;;4.40;4.00;;;20.50;99.90;;;;;;5091971;28;20663;-74
2023/08/14 01:12:50;;;;;;;5.00;3.90;;;20.60;99.90;;;;;;5102540;28;20623;-74
2023/08/14 01:15:26;;;;;;;4.30;4.00;;;20.60;99.90;;;;;;5087790;28;20632;-74
2023/08/14 01:17:58;;;;;;;5.40;4.90;;;20.60;99.90;;;;;;5101741;28;20630;-74
2023/08/14 01:20:29;;;;;;;5.13;4.63;;;20.60;99.90;;;;;;5086839;28;20650;-74
2023/08/14 01:23:06;;;;;;;4.30;3.90;;;20.60;99.90;;;;;;5101080;28;21204;-74
2023/08/14 01:25:38;;;;;;;5.53;4.63;;;20.60;99.90;;;;;;5088283;28;21217;-74
2023/08/14 01:28:07;;;;;;;4.97;4.40;;;20.60;99.90;;;;;;5093907;28;20761;-74
2023/08/14 01:30:34;;;;;;;5.83;5.33;;;20.60;99.90;;;;;;5089855;28;20654;-74
2023/08/14 01:33:01;;;;;;;5.27;4.80;;;20.50;99.90;;;;;;5096765;28;21222;-74
2023/08/14 01:35:36;;;;;;;5.27;4.20;;;20.50;99.90;;;;;;5089613;28;20682;-74
2023/08/14 01:38:17;;;;;;;4.63;4.20;;;20.70;99.90;;;;;;5091819;28;21243;-74
2023/08/14 01:40:55;;;;;;;5.30;4.80;;;20.70;99.90;;;;;;5068210;28;20647;-74
2023/08/14 01:43:27;;;;;;;5.33;4.40;;;20.80;99.90;;;;;;5091412;28;20630;-74
2023/08/14 01:45:57;;;;;;;5.17;4.67;;;20.80;99.90;;;;;;5090981;28;20647;-74
2023/08/14 01:48:26;;;;;;;6.47;4.10;;;20.80;99.90;;;;;;5094689;28;20658;-74
2023/08/14 01:50:57;;;;;;;3.63;3.40;;;20.80;99.90;;;;;;5102538;28;21203;-74
2023/08/14 01:53:24;;;;;;;5.03;4.50;;;20.80;99.90;;;;;;5101677;28;21065;-74
2023/08/14 01:55:56;;;;;;;3.20;2.90;;;20.70;99.90;;;;;;5093511;28;20651;-74
2023/08/14 01:58:24;;;;;;;4.33;3.53;;;20.60;99.90;;;;;;5103656;28;20624;-74
2023/08/14 02:00:51;;;;;;;6.60;3.70;;;20.60;99.90;;;;;;5099406;28;20669;-75
2023/08/14 02:03:19;;;;;;;4.23;3.30;;;20.50;99.90;;;;;;5094555;28;20615;-74
2023/08/14 02:05:46;;;;;;;2.90;2.70;;;20.50;99.90;;;;;;5090655;28;20641;-74
2023/08/14 02:08:13;;;;;;;3.53;3.23;;;20.40;99.90;;;;;;5086712;28;21268;-74
2023/08/14 02:10:40;;;;;;;3.67;2.83;;;20.30;99.90;;;;;;5091415;28;20678;-75
2023/08/14 02:13:08;;;;;;;3.40;3.07;;;20.30;99.90;;;;;;5092221;28;20719;-75
2023/08/14 02:15:35;;;;;;;4.57;2.63;;;20.30;99.90;;;;;;5096552;28;20698;-75
2023/08/14 02:18:02;;;;;;;3.83;3.43;;;20.20;99.90;;;;;;5091557;28;20708;-75
2023/08/14 02:20:30;;;;;;;2.50;2.23;;;20.20;99.90;;;;;;5094238;28;21042;-74
2023/08/14 02:22:58;;;;;;;4.93;3.53;;;20.20;99.90;;;;;;5095710;28;20627;-74
2023/08/14 02:25:26;;;;;;;2.80;2.50;;;20.20;99.90;;;;;;5100137;28;20641;-75
2023/08/14 02:27:53;;;;;;;3.83;2.90;;;20.20;99.90;;;;;;5096800;28;20684;-75
2023/08/14 02:30:22;;;;;;;3.07;2.87;;;20.30;99.90;;;;;;5096169;28;20664;-75
2023/08/14 02:32:50;;;;;;;3.93;3.40;;;20.20;99.90;;;;;;5104960;28;20637;-75
2023/08/14 02:35:18;;;;;;;3.50;3.10;;;20.20;99.90;;;;;;5092881;28;20639;-75
2023/08/14 02:37:45;;;;;;;4.10;2.53;;;20.20;99.90;;;;;;5091172;28;21227;-75
2023/08/14 02:40:12;;;;;;;3.23;2.93;;;20.20;99.90;;;;;;5098374;28;21094;-75
2023/08/14 02:42:39;;;;;;;2.60;2.40;;;20.20;99.90;;;;;;5095717;28;20622;-75
2023/08/14 02:45:09;;;;;;;2.60;2.40;;;20.20;99.90;;;;;;5100483;28;20629;-75
2023/08/14 02:47:37;;;;;;;2.97;2.10;;;20.10;99.90;;;;;;5090970;28;20617;-75
2023/08/14 02:50:06;;;;;;;2.93;2.67;;;20.00;99.90;;;;;;5089255;28;20973;-75
2023/08/14 02:52:34;;;;;;;3.40;2.50;;;19.90;99.90;;;;;;5089640;28;20736;-75
2023/08/14 02:55:01;;;;;;;2.60;2.40;;;19.90;99.90;;;;;;5082530;28;20703;-75
2023/08/14 02:57:29;;;;;;;3.40;2.20;;;19.90;99.90;;;;;;5092498;28;20642;-75
2023/08/14 02:59:57;;;;;;;4.77;3.03;;;19.80;99.90;;;;;;5096930;28;20641;-75
2023/08/14 03:02:25;;;;;;;3.23;2.97;;;19.70;99.90;;;;;;5089930;28;20684;-74
2023/08/14 03:04:56;;;;;;;3.13;2.70;;;19.60;99.90;;;;;;5099024;28;20735;-74
2023/08/14 03:07:23;;;;;;;3.60;3.30;;;19.40;99.90;;;;;;5093831;28;20659;-74
2023/08/14 03:09:50;;;;;;;3.63;2.77;;;19.50;99.90;;;;;;5089825;28;20609;-74
2023/08/14 03:12:18;;;;;;;4.50;3.87;;;19.60;99.90;;;;;;5088040;28;20640;-74
2023/08/14 03:14:45;;;;;;;3.23;2.93;;;19.60;99.90;;;;;;5096860;28;21196;-74
2023/08/14 03:17:12;;;;;;;4.13;3.03;;;19.50;99.90;;;;;;5089625;28;20643;-75
2023/08/14 03:19:38;;;;;;;4.57;3.83;;;19.40;99.90;;;;;;5094623;28;20763;-74
2023/08/14 03:22:07;;;;;;;5.90;3.93;;;19.50;99.90;;;;;;5098315;28;21220;-74
2023/08/14 03:24:33;;;;;;;3.87;3.30;;;19.50;99.90;;;;;;5084632;28;20620;-74
2023/08/14 03:27:01;;;;;;;3.50;3.20;;;19.60;99.90;;;;;;5093986;28;20656;-74
2023/08/14 03:29:28;;;;;;;4.20;2.63;;;19.60;99.90;;;;;;5090433;28;20625;-74
2023/08/14 03:31:55;;;;;;;3.77;3.47;;;19.70;99.90;;;;;;5089186;28;20657;-75
2023/08/14 03:34:21;;;;;;;6.10;4.00;;;19.70;99.90;;;;;;5089836;28;21268;-75
2023/08/14 03:36:48;;;;;;;4.53;4.07;;;19.50;99.90;;;;;;5095742;28;20654;-74
2023/08/14 03:39:16;;;;;;;3.40;3.10;;;19.40;99.90;;;;;;5090997;28;20613;-74
2023/08/14 03:41:44;;;;;;;3.60;3.30;;;19.30;99.90;;;;;;5100504;28;20706;-74
2023/08/14 03:44:11;;;;;;;4.03;3.73;;;19.30;99.90;;;;;;5098816;28;20629;-74
2023/08/14 03:46:38;;;;;;;3.93;3.60;;;19.30;99.90;;;;;;5098901;28;20647;-74
2023/08/14 03:49:05;;;;;;;4.60;4.20;;;19.20;99.90;;;;;;5088588;28;20627;-74
2023/08/14 03:51:32;;;;;;;4.57;3.47;;;19.10;99.90;;;;;;5097885;28;20636;-74
2023/08/14 03:53:58;;;;;;;4.90;3.70;;;19.20;99.90;;;;;;5094295;28;20622;-74
2023/08/14 03:56:27;;;;;;;4.30;3.90;;;19.20;99.90;;;;;;5095141;28;20748;-74
2023/08/14 03:58:53;;;;;;;3.50;3.20;;;19.20;99.90;;;;;;5090158;28;21063;-74
2023/08/14 04:01:20;;;;;;;3.60;3.30;;;19.20;99.90;;;;;;5096002;28;20671;-74
2023/08/14 04:03:47;;;;;;;3.47;3.13;;;19.30;99.90;;;;;;5097541;28;20623;-74
2023/08/14 04:06:14;;;;;;;4.33;2.77;;;19.20;99.90;;;;;;5097161;28;20656;-74
2023/08/14 04:08:40;;;;;;;6.67;2.90;;;19.20;99.90;;;;;;5097190;28;20626;-74
2023/08/14 04:11:09;;;;;;;4.60;3.80;;;19.10;99.90;;;;;;5097997;28;20795;-74
2023/08/14 04:13:37;;;;;;;3.20;3.00;;;19.10;99.90;;;;;;5088756;28;20617;-74
2023/08/14 04:16:05;;;;;;;3.43;3.13;;;19.00;99.90;;;;;;5090636;28;20661;-74
2023/08/14 04:18:32;;;;;;;3.43;3.13;;;18.90;99.90;;;;;;5095216;28;20794;-74
2023/08/14 04:20:59;;;;;;;4.23;3.80;;;18.80;99.90;;;;;;5087863;28;20664;-74
2023/08/14 04:23:28;;;;;;;3.23;3.00;;;18.80;99.90;;;;;;5102013;28;21192;-74
2023/08/14 04:25:55;;;;;;;2.90;2.70;;;18.80;99.90;;;;;;5091891;28;20667;-74
2023/08/14 04:28:22;;;;;;;3.03;2.80;;;18.80;99.90;;;;;;5090354;28;20628;-74
2023/08/14 04:30:50;;;;;;;3.40;3.10;;;18.90;99.90;;;;;;5087964;28;21338;-74
2023/08/14 04:33:18;;;;;;;3.00;2.57;;;18.90;99.90;;;;;;5096192;28;21182;-74
2023/08/14 04:35:45;;;;;;;5.00;3.33;;;18.90;99.90;;;;;;5082184;28;20653;-74
2023/08/14 04:38:12;;;;;;;3.83;3.27;;;18.80;99.90;;;;;;5087984;28;21110;-74
2023/08/14 04:40:38;;;;;;;4.83;3.47;;;18.80;99.90;;;;;;5089425;28;20667;-74
2023/08/14 04:43:05;;;;;;;3.10;2.83;;;18.70;99.90;;;;;;5096615;28;20751;-74
2023/08/14 04:45:32;;;;;;;3.93;3.43;;;18.70;99.90;;;;;;5093490;28;20743;-74
2023/08/14 04:48:00;;;;;;;3.40;3.10;;;18.80;99.90;;;;;;5093505;28;20627;-72
2023/08/14 04:50:27;;;;;;;3.00;2.80;;;18.70;99.90;;;;;;5088727;28;20633;-76
2023/08/14 04:52:53;;;;;;;3.10;2.43;;;18.70;99.90;;;;;;5095074;28;21007;-75
2023/08/14 04:55:23;;;;;;;3.43;3.13;;;18.80;99.90;;;;;;5093157;28;20971;-75
2023/08/14 04:57:50;;;;;;;2.80;2.53;;;18.80;99.90;;;;;;5098549;28;20662;-75
2023/08/14 05:00:17;;;;;;;3.00;2.80;;;18.70;99.90;;;;;;5089719;28;20765;-78
2023/08/14 05:02:44;;;;;;;2.83;2.63;;;18.70;99.90;;;;;;5096186;28;20690;-78
2023/08/14 05:05:12;;;;;;;3.00;2.70;;;18.70;99.90;;;;;;5102631;28;20621;-78
2023/08/14 05:07:39;;;;;;;3.30;2.93;;;18.70;99.90;;;;;;5094436;28;20643;-77
2023/08/14 05:10:07;;;;;;;2.33;2.13;;;18.80;99.90;;;;;;5095511;28;20620;-78
2023/08/14 05:12:33;;;;;;;2.50;2.30;;;18.90;99.90;;;;;;5096567;28;20715;-78
2023/08/14 05:15:01;;;;;;;3.90;2.80;;;18.90;99.90;;;;;;5087162;28;21152;-74
2023/08/14 05:17:27;;;;;;;5.00;2.83;;;19.00;99.90;;;;;;5091605;28;20648;-74
2023/08/14 05:19:54;;;;;;;3.63;2.43;;;19.00;99.90;;;;;;5084920;28;20728;-74
2023/08/14 05:22:22;;;;;;;2.53;2.30;;;19.10;99.90;;;;;;5089249;28;20648;-74
2023/08/14 05:24:49;;;;;;;3.23;2.97;;;19.20;99.90;;;;;;5097833;28;20858;-74
2023/08/14 05:27:16;;;;;;;3.43;3.13;;;19.30;99.90;;;;;;5091521;28;21307;-74
2023/08/14 05:29:42;;;;;;;2.93;2.73;;;19.40;99.90;;;;;;5093887;28;20739;-74
2023/08/14 05:32:09;;;;;;;4.23;2.90;;;19.50;99.90;;;;;;5105344;28;20636;-74
2023/08/14 05:34:36;;;;;;;2.90;2.67;;;19.50;99.90;;;;;;5092503;28;20755;-73
2023/08/14 05:37:03;;;;;;;3.67;2.13;;;19.60;99.90;;;;;;5091417;28;20752;-74
2023/08/14 05:39:31;;;;;;;3.73;3.30;;;19.70;99.90;;;;;;5091990;28;20632;-74
2023/08/14 05:41:58;;;;;;;2.93;2.60;;;19.80;99.90;;;;;;5094613;28;21213;-73
2023/08/14 05:44:23;;;;;;;2.80;2.60;;;19.80;99.90;;;;;;5090546;28;20668;-73
2023/08/14 05:46:50;;;;;;;3.47;2.87;;;19.80;99.90;;;;;;5096797;28;20644;-73
2023/08/14 05:49:17;;;;;;;3.47;3.20;;;19.90;99.90;;;;;;5096576;28;20203;-74
2023/08/14 05:51:44;;;;;;;3.20;2.90;;;19.90;99.90;;;;;;5091987;28;20753;-74
2023/08/14 05:54:11;;;;;;;2.87;2.67;;;20.00;99.90;;;;;;5090999;28;20618;-73
2023/08/14 05:56:39;;;;;;;3.70;2.80;;;20.00;99.90;;;;;;5099658;28;20682;-72
2023/08/14 05:59:06;;;;;;;2.60;2.40;;;20.00;99.90;;;;;;5090628;28;21185;-72
2023/08/14 06:01:33;;;;;;;2.70;2.53;;;19.90;99.90;;;;;;5089410;28;20663;-74
2023/08/14 06:04:00;;;;;;;3.13;2.93;;;20.00;99.90;;;;;;5099624;28;20630;-72
2023/08/14 06:06:27;;;;;;;3.60;2.90;;;20.00;99.90;;;;;;5095321;28;21228;-73
2023/08/14 06:08:53;;;;;;;3.97;3.20;;;20.10;99.90;;;;;;5098391;28;21071;-73
2023/08/14 06:11:20;;;;;;;3.07;2.77;;;20.10;99.90;;;;;;5102608;28;21202;-73
2023/08/14 06:13:48;;;;;;;3.40;3.20;;;20.10;99.90;;;;;;5103004;28;20959;-73
2023/08/14 06:16:15;;;;;;;2.97;2.70;;;20.10;99.90;;;;;;5099416;28;20745;-72
2023/08/14 06:18:42;;;;;;;3.63;3.33;;;20.10;99.90;;;;;;5087454;28;20789;-72
2023/08/14 06:21:09;;;;;;;3.33;3.13;;;20.00;99.90;;;;;;5085033;28;20666;-72
2023/08/14 06:23:36;;;;;;;3.20;3.00;;;20.10;99.90;;;;;;5093221;28;20638;-72
2023/08/14 06:26:03;;;;;;;4.70;2.80;;;20.10;99.90;;;;;;5088061;28;20666;-72
2023/08/14 06:28:30;;;;;;;3.27;2.80;;;20.10;99.90;;;;;;5098842;28;21435;-72
2023/08/14 06:31:02;;;;;;;3.40;3.10;;;20.10;99.90;;;;;;5088621;28;20748;-72
2023/08/14 06:33:29;;;;;;;3.17;2.87;;;20.20;99.90;;;;;;5090652;28;20624;-72
2023/08/14 06:35:56;;;;;;;3.97;3.57;;;20.10;99.90;;;;;;5091888;28;20635;-72
2023/08/14 06:38:23;;;;;;;3.90;3.60;;;20.20;99.90;;;;;;5094327;28;20624;-72
2023/08/14 06:40:50;;;;;;;3.17;2.93;;;20.20;99.90;;;;;;5088455;28;20659;-72
2023/08/14 06:43:17;;;;;;;2.90;2.70;;;20.30;99.90;;;;;;5095964;28;20630;-72
2023/08/14 06:45:45;;;;;;;4.90;3.63;;;20.50;99.90;;;;;;5089570;28;20647;-71
2023/08/14 06:48:13;;;;;;;4.03;3.33;;;20.70;99.90;;;;;;5090260;28;20634;-71
2023/08/14 06:50:40;;;;;;;3.37;3.07;;;20.80;99.90;;;;;;5095551;28;20646;-72
2023/08/14 06:53:07;;;;;;;3.47;3.17;;;20.80;99.90;;;;;;5097466;28;20620;-71
2023/08/14 06:55:33;;;;;;;2.93;2.73;;;20.80;99.90;;;;;;5090171;28;20990;-71
2023/08/14 06:58:00;;;;;;;3.50;3.20;;;20.70;99.90;;;;;;5091710;28;20727;-71
2023/08/14 07:00:28;;;;;;;3.60;3.30;;;20.80;99.90;;;;;;5083851;28;20648;-71
2023/08/14 07:02:54;;;;;;;5.13;3.70;;;20.90;99.90;;;;;;5087933;28;20625;-71
2023/08/14 07:05:23;;;;;;;3.40;3.10;;;20.90;99.90;;;;;;5093871;28;21333;-71
2023/08/14 07:07:49;;;;;;;3.63;3.20;;;21.00;99.90;;;;;;5099128;28;20649;-71
2023/08/14 07:10:17;;;;;;;3.20;2.90;;;21.20;99.90;;;;;;5090528;28;20619;-71
2023/08/14 07:12:43;;;;;;;4.73;3.27;;;21.10;99.90;;;;;;5097871;28;20727;-71
2023/08/14 07:15:11;;;;;;;2.93;2.63;;;21.20;99.90;;;;;;5090084;28;20628;-71
2023/08/14 07:17:38;;;;;;;3.40;3.20;;;21.40;99.90;;;;;;5101700;28;20628;-71
2023/08/14 07:20:06;;;;;;;4.10;3.70;;;21.50;99.90;;;;;;5089977;28;20632;-72
2023/08/14 07:22:34;;;;;;;3.33;3.03;;;21.40;99.90;;;;;;5095325;28;20745;-71
2023/08/14 07:25:01;;;;;;;3.20;2.90;;;21.50;99.90;;;;;;5088568;28;20630;-71
2023/08/14 07:27:28;;;;;;;3.80;3.50;;;21.80;99.90;;;;;;5097728;28;20746;-71
2023/08/14 07:29:54;;;;;;;2.93;2.73;;;21.70;99.90;;;;;;5097040;28;21235;-71
2023/08/14 07:32:21;;;;;;;2.67;2.40;;;21.80;99.90;;;;;;5084234;28;20699;-71
2023/08/14 07:34:49;;;;;;;4.13;2.63;;;22.00;99.90;;;;;;5091050;28;20609;-71
2023/08/14 07:37:16;;;;;;;2.70;2.50;;;22.00;99.90;;;;;;5095086;28;20654;-71
2023/08/14 07:39:44;;;;;;;6.33;3.70;;;21.90;99.90;;;;;;5086268;28;20650;-71
2023/08/14 07:42:11;;;;;;;6.20;3.30;;;22.10;99.90;;;;;;5088984;28;20670;-71
2023/08/14 07:44:37;;;;;;;3.00;2.70;;;22.20;99.90;;;;;;5097026;28;20621;-71
2023/08/14 07:47:04;;;;;;;3.50;3.20;;;22.20;99.90;;;;;;5092428;28;21246;-71
2023/08/14 07:49:33;;;;;;;3.13;2.87;;;22.40;99.90;;;;;;5089227;28;20712;-71
2023/08/14 07:52:00;;;;;;;3.40;3.10;;;22.60;99.90;;;;;;5085680;28;20642;-71
2023/08/14 07:54:26;;;;;;;3.20;2.90;;;22.50;99.90;;;;;;5097348;28;21081;-71
2023/08/14 07:56:55;;;;;;;3.47;3.17;;;22.60;99.90;;;;;;5098896;28;20655;-71
2023/08/14 07:59:22;;;;;;;3.37;3.07;;;22.80;99.90;;;;;;5093945;28;20636;-72
2023/08/14 08:01:48;;;;;;;2.73;2.53;;;22.80;99.90;;;;;;5090374;28;20659;-72
2023/08/14 08:04:15;;;;;;;2.90;2.70;;;22.70;99.90;;;;;;5089589;28;20649;-72
2023/08/14 08:06:42;;;;;;;3.43;3.13;;;22.80;99.90;;;;;;5092455;28;21322;-72
2023/08/14 08:09:09;;;;;;;2.70;2.50;;;22.80;99.90;;;;;;5087124;28;20616;-72
2023/08/14 08:11:36;;;;;;;3.07;2.77;;;23.10;99.90;;;;;;5094272;28;20661;-72
2023/08/14 08:14:05;;;;;;;3.60;2.93;;;23.20;99.90;;;;;;5090981;28;20621;-72
2023/08/14 08:16:34;;;;;;;3.27;2.90;;;23.30;99.90;;;;;;5088952;28;20758;-72
2023/08/14 08:19:01;;;;;;;3.60;3.30;;;23.40;99.90;;;;;;5090442;28;20680;-72
2023/08/14 08:21:28;;;;;;;3.27;2.80;;;23.40;99.90;;;;;;5100966;28;20757;-72
2023/08/14 08:23:55;;;;;;;2.70;2.50;;;23.70;99.90;;;;;;5099992;28;20625;-72
2023/08/14 08:26:22;;;;;;;17.97;2.77;;;23.80;99.90;;;;;;5094190;28;20784;-72
2023/08/14 08:28:48;;;;;;;3.23;2.37;;;24.00;99.90;;;;;;5093207;28;20642;-72
2023/08/14 08:31:17;;;;;;;3.33;2.30;;;24.00;99.90;;;;;;5087403;28;20655;-72
2023/08/14 08:33:43;;;;;;;2.80;2.60;;;24.20;99.90;;;;;;5095659;28;20666;-72
2023/08/14 08:36:10;;;;;;;2.90;2.50;;;24.30;99.90;;;;;;5088130;28;20677;-72
2023/08/14 08:38:37;;;;;;;4.60;2.93;;;24.40;99.90;;;;;;5087743;28;20628;-72
2023/08/14 08:41:04;;;;;;;3.10;2.80;;;24.40;99.90;;;;;;5093305;28;20651;-72
2023/08/14 08:43:32;;;;;;;2.63;2.43;;;24.50;99.90;;;;;;5087541;28;20636;-71
2023/08/14 08:46:02;;;;;;;3.10;2.80;;;24.50;99.90;;;;;;5094573;28;20651;-72
2023/08/14 08:48:34;;;;;;;3.10;2.77;;;24.60;99.90;;;;;;5088747;28;20625;-72
2023/08/14 08:51:01;;;;;;;3.57;3.27;;;24.80;99.90;;;;;;5086325;28;20644;-72
2023/08/14 08:53:29;;;;;;;2.90;2.70;;;24.90;99.90;;;;;;5094088;28;21194;-72
2023/08/14 08:55:56;;;;;;;8.47;3.10;;;25.10;99.90;;;;;;5089492;28;21088;-72
2023/08/14 08:58:25;;;;;;;3.83;2.73;;;25.20;99.90;;;;;;5090410;28;20623;-72
2023/08/14 09:00:54;;;;;;;3.00;2.80;;;25.20;99.90;;;;;;5090053;28;20754;-71
2023/08/14 09:03:21;;;;;;;3.43;3.13;;;25.30;99.90;;;;;;5097460;28;20758;-72
2023/08/14 09:05:51;;;;;;;2.83;2.63;;;25.40;99.90;;;;;;5100071;28;20632;-71
2023/08/14 09:08:18;;;;;;;2.93;2.73;;;25.50;99.90;;;;;;5094950;28;20644;-71
2023/08/14 09:10:45;;;;;;;3.00;2.80;;;25.60;99.90;;;;;;5095173;28;20651;-72
2023/08/14 09:13:11;;;;;;;4.03;3.77;;;25.80;99.90;;;;;;5091701;28;20620;-72
2023/08/14 09:15:43;;;;;;;3.23;3.00;;;25.90;99.90;;;;;;5093016;28;20659;-72
2023/08/14 09:18:10;;;;;;;3.30;3.00;;;25.90;99.90;;;;;;5096752;28;20724;-72
2023/08/14 09:20:38;;;;;;;3.43;3.13;;;26.00;99.90;;;;;;5090297;28;20644;-72
2023/08/14 09:23:11;;;;;;;2.70;2.50;;;26.20;99.90;;;;;;5095031;28;20990;-72
2023/08/14 09:25:38;;;;;;;5.00;3.53;;;26.30;99.90;;;;;;5090038;28;20701;-72
2023/08/14 09:28:08;;;;;;;3.43;3.13;;;26.40;99.90;;;;;;5091001;28;20723;-72
2023/08/14 09:30:36;;;;;;;3.93;2.97;;;26.30;99.90;;;;;;5090626;28;20646;-72
2023/08/14 09:33:07;;;;;;;2.53;2.30;;;26.50;99.90;;;;;;5091638;28;20640;-72
2023/08/14 09:35:33;;;;;;;3.43;3.13;;;26.50;99.90;;;;;;5095384;28;20649;-72
2023/08/14 09:38:00;;;;;;;4.23;3.83;;;26.70;99.90;;;;;;5091022;28;20629;-72
2023/08/14 09:40:29;;;;;;;3.33;3.13;;;26.80;99.90;;;;;;5091285;28;20644;-72
2023/08/14 09:42:57;;;;;;;3.17;2.90;;;26.80;99.90;;;;;;5100038;28;20659;-72
2023/08/14 09:45:27;;;;;;;4.00;2.63;;;26.90;99.90;;;;;;5090577;28;20649;-73
2023/08/14 09:48:00;;;;;;;3.87;3.03;;;27.10;99.90;;;;;;5093467;28;20616;-72
2023/08/14 09:50:28;;;;;;;3.87;3.50;;;27.20;99.90;;;;;;5089565;28;20744;-72
2023/08/14 09:52:58;;;;;;;3.93;3.60;;;27.30;99.90;;;;;;5089872;28;20621;-72
2023/08/14 09:55:26;;;;;;;4.10;3.70;;;27.30;99.90;;;;;;5094636;28;20648;-72
2023/08/14 09:57:55;;;;;;;4.13;3.33;;;27.40;99.90;;;;;;5098746;28;20873;-72
2023/08/14 10:00:22;;;;;;;3.37;3.13;;;27.50;99.90;;;;;;5091556;28;20629;-72
2023/08/14 10:02:49;;;;;;;3.80;3.50;;;27.60;99.20;;;;;;5095366;28;20654;-72
2023/08/14 10:05:18;;;;;;;3.60;3.40;;;28.00;99.60;;;;;;5089696;28;20628;-72
2023/08/14 10:07:45;;;;;;;4.07;3.77;;;28.10;98.30;;;;;;5090799;28;20640;-72
2023/08/14 10:10:14;;;;;;;4.70;4.20;;;28.30;97.60;;;;;;5091892;28;20617;-72
2023/08/14 10:12:46;;;;;;;3.40;3.03;;;28.40;96.70;;;;;;5090977;28;20621;-72
2023/08/14 10:15:21;;;;;;;3.33;3.03;;;28.60;95.50;;;;;;5098741;28;20963;-72
2023/08/14 10:17:52;;;;;;;3.63;3.33;;;28.60;96.80;;;;;;5099406;28;20638;-73
2023/08/14 10:20:21;;;;;;;3.63;3.33;;;28.70;96.20;;;;;;5090071;28;20620;-73
2023/08/14 10:22:50;;;;;;;3.57;3.27;;;28.70;96.70;;;;;;5090699;28;20679;-72
2023/08/14 10:25:17;;;;;;;3.40;3.10;;;28.70;95.50;;;;;;5095048;28;20717;-72
2023/08/14 10:27:45;;;;;;;3.90;3.60;;;28.90;95.50;;;;;;5102095;28;20626;-72
2023/08/14 10:30:12;;;;;;;3.47;3.17;;;28.70;97.00;;;;;;5089657;28;20667;-72
2023/08/14 10:32:41;;;;;;;3.13;2.93;;;28.70;96.10;;;;;;5092743;28;20620;-72
2023/08/14 10:35:11;;;;;;;4.43;3.20;;;28.80;95.50;;;;;;5103858;28;20622;-72
2023/08/14 10:37:42;;;;;;;3.37;3.10;;;29.00;95.30;;;;;;5097896;28;20979;-73
2023/08/14 10:40:17;;;;;;;3.67;3.37;;;29.00;94.00;;;;;;5094322;28;20646;-75
2023/08/14 10:42:45;;;;;;;4.17;3.77;;;29.10;96.40;;;;;;5099105;28;20666;-74
2023/08/14 10:45:15;;;;;;;3.37;3.10;;;29.00;95.00;;;;;;5083965;28;20638;-74
2023/08/14 10:47:44;;;;;;;3.77;3.47;;;28.70;95.00;;;;;;5091947;28;20628;-74
2023/08/14 10:50:16;;;;;;;4.07;3.77;;;28.60;96.90;;;;;;5104413;28;20609;-75
2023/08/14 10:52:46;;;;;;;3.77;3.53;;;28.60;96.50;;;;;;5099700;28;20616;-74
2023/08/14 10:55:17;;;;;;;3.90;3.57;;;28.70;94.80;;;;;;5100312;28;20686;-74
2023/08/14 10:57:45;;;;;;;4.23;3.93;;;28.90;94.70;;;;;;5091602;28;20674;-74
2023/08/14 11:00:21;;;;;;;3.43;3.23;;;29.00;95.70;;;;;;5093286;28;20632;-72
2023/08/14 11:02:52;;;;;;;3.70;3.40;;;29.10;95.50;;;;;;5086411;28;20645;-73
2023/08/14 11:05:19;;;;;;;3.93;3.63;;;29.10;94.80;;;;;;5096371;28;20645;-73
2023/08/14 11:07:57;;;;;;;3.70;3.40;;;29.10;93.80;;;;;;5095789;28;20730;-73
2023/08/14 11:10:25;;;;;;;3.93;3.70;;;29.00;94.60;;;;;;5089398;28;20648;-72
2023/08/14 11:12:53;;;;;;;4.93;3.97;;;29.00;94.20;;;;;;5090882;28;20621;-73
2023/08/14 11:15:20;;;;;;;4.97;3.80;;;29.30;94.00;;;;;;5088090;28;20625;-73
2023/08/14 11:17:47;;;;;;;3.77;3.47;;;29.40;93.60;;;;;;5097324;28;20969;-73
2023/08/14 11:20:16;;;;;;;4.60;4.20;;;29.40;95.20;;;;;;5095555;28;20627;-73
2023/08/14 11:22:44;;;;;;;3.80;3.50;;;29.50;94.60;;;;;;5089572;28;20652;-73
2023/08/14 11:25:14;;;;;;;3.57;3.37;;;29.30;93.40;;;;;;5097155;28;20901;-72
2023/08/14 11:27:40;;;;;;;3.33;3.13;;;29.10;95.30;;;;;;5101703;28;20616;-72
2023/08/14 11:30:08;;;;;;;3.30;3.00;;;29.00;94.20;;;;;;5098060;28;21251;-73
2023/08/14 11:32:35;;;;;;;3.63;3.33;;;28.90;94.00;;;;;;5088733;28;20985;-73
2023/08/14 11:35:03;;;;;;;3.70;3.50;;;29.30;93.70;;;;;;5097652;28;20616;-72
2023/08/14 11:37:31;;;;;;;3.60;3.30;;;30.00;92.70;;;;;;5088110;28;20616;-73
2023/08/14 11:40:04;;;;;;;3.53;3.23;;;30.40;91.50;;;;;;5096144;28;20621;-73
2023/08/14 11:42:31;;;;;;;3.97;3.67;;;30.50;91.90;;;;;;5089015;28;20644;-73
2023/08/14 11:44:58;;;;;;;4.30;3.90;;;30.80;90.50;;;;;;5088474;28;20715;-73
2023/08/14 11:47:25;;;;;;;3.30;3.00;;;30.80;89.50;;;;;;5095653;28;21025;-73
2023/08/14 11:49:52;;;;;;;3.43;3.13;;;31.10;91.30;;;;;;5092742;28;20624;-73
2023/08/14 11:52:20;;;;;;;4.33;3.93;;;31.40;90.30;;;;;;5097355;28;20645;-73
2023/08/14 11:54:48;;;;;;;3.20;3.00;;;31.00;90.30;;;;;;5101029;28;21015;-73
2023/08/14 11:57:14;;;;;;;4.10;3.80;;;31.10;89.30;;;;;;5088326;28;20654;-73
2023/08/14 11:59:41;;;;;;;4.93;3.33;;;31.10;88.50;;;;;;5088259;28;20624;-73
2023/08/14 12:02:10;;;;;;;3.50;3.30;;;31.40;89.30;;;;;;5101660;28;21172;-74
2023/08/14 12:04:40;;;;;;;3.07;2.87;;;31.30;85.00;;;;;;5088689;28;20635;-73
2023/08/14 12:07:07;;;;;;;4.03;3.63;;;31.40;88.20;;;;;;5087381;28;20748;-73
2023/08/14 12:09:34;;;;;;;3.50;3.30;;;31.50;84.70;;;;;;5087545;28;21228;-73
2023/08/14 12:12:02;;;;;;;3.27;2.97;;;31.40;88.10;;;;;;5096002;28;20750;-73
2023/08/14 12:14:38;;;;;;;3.60;3.40;;;31.30;89.90;;;;;;5091559;28;20623;-73
2023/08/14 12:17:08;;;;;;;3.57;3.37;;;31.10;90.60;;;;;;5096541;28;20656;-73
2023/08/14 12:19:35;;;;;;;5.30;3.80;;;30.70;90.20;;;;;;5094316;28;20620;-73
2023/08/14 12:22:02;;;;;;;3.37;3.10;;;30.50;91.90;;;;;;5091478;28;20658;-73
2023/08/14 12:24:38;;;;;;;3.67;3.40;;;30.30;90.20;;;;;;5096776;28;20634;-73
2023/08/14 12:27:14;;;;;;;3.47;3.27;;;30.10;90.90;;;;;;5088199;28;20650;-73
2023/08/14 12:29:41;;;;;;;4.60;3.73;;;29.70;92.60;;;;;;5091273;28;20612;-73
2023/08/14 12:32:07;;;;;;;3.60;3.30;;;29.60;92.60;;;;;;5095121;28;20650;-73
2023/08/14 12:34:34;;;;;;;4.00;3.70;;;29.20;94.00;;;;;;5087237;28;21041;-73
2023/08/14 12:37:02;;;;;;;4.00;3.70;;;29.10;95.40;;;;;;5093236;28;20747;-73
2023/08/14 12:39:29;;;;;;;3.50;3.23;;;29.00;95.40;;;;;;5088803;28;21199;-73
2023/08/14 12:41:56;;;;;;;4.00;3.60;;;28.60;92.40;;;;;;5088121;28;20666;-73
2023/08/14 12:44:25;;;;;;;3.87;3.57;;;28.50;93.60;;;;;;5088951;28;20652;-73
2023/08/14 12:46:51;;;;;;;2.83;2.63;;;28.10;93.10;;;;;;5088202;28;21253;-73
2023/08/14 12:49:19;;;;;;;7.23;3.10;;;28.10;93.90;;;;;;5093482;28;20642;-73
2023/08/14 12:51:46;;;;;;;4.47;3.40;;;27.70;94.80;;;;;;5097455;28;20651;-73